KSLE/SLE METAR and TAF weather

Enter ICAO airport designator
Station Type Date Time Source
KSLE METAR 2021/03/03 01:56 UTC NOAA

KSLE 030156Z 03004KT 10SM CLR 11/04 A2992 RMK AO2 SLP133 T01060039


Station Type Date Time Source
KSLE Decoded METAR 2021/03/03 01:56 UTC NOAA

SALEM MCNARY FIELD, OR, United States (KSLE) 44-54N 123-00W 59M
Mar 02, 2021 - 08:56 PM EST / 2021.03.03 0156 UTC
Wind: from the NNE (030 degrees) at 5 MPH (4 KT):0
Visibility: 10 mile(s):0
Sky conditions: clear
Temperature: 51.1 F (10.6 C)
Dew Point: 39.0 F (3.9 C)
Relative Humidity: 63%
Pressure (altimeter): 29.92 in. Hg (1013 hPa)
ob: KSLE 030156Z 03004KT 10SM CLR 11/04 A2992 RMK AO2 SLP133 T01060039
cycle: 2

Station Type Date Time Source
KSLE TAF 2021/03/02 18:34 UTC NOAA

TAF KSLE 021732Z 0218/0318 34004KT P6SM SCT200
FM031100 VRB02KT 6SM BCFG FEW001 SCT025

Example: see airport list